CET,Max TemperatureF,Mean TemperatureF,Min TemperatureF,Max Dew PointF,MeanDew PointF,Min DewpointF,Max Humidity, Mean Humidity, Min Humidity, Max Sea Level PressureIn, Mean Sea Level PressureIn, Min Sea Level PressureIn, Max VisibilityMiles, Mean VisibilityMiles, Min VisibilityMiles, Max Wind SpeedMPH, Mean Wind SpeedMPH, Max Gust SpeedMPH,PrecipitationIn, CloudCover, Events, WindDirDegrees
2013-2-1,69,54,39,52,44,39,100,78,39,30.30,30.00,29.65,16,6,3,10,2,,0.00,1,,302
2013-2-2,57,49,41,50,37,23,100,64,33,29.83,29.63,29.50,16,7,6,10,3,,0.00,4,Rain,22
2013-2-3,57,46,35,21,10,-2,52,25,4,30.27,30.03,29.83,6,6,6,29,9,47,0.01,3,,5
2013-2-4,59,44,28,32,24,18,81,55,21,30.30,30.26,30.21,19,8,6,8,1,,0.00,1,,272
2013-2-5,65,48,30,48,38,30,100,79,41,30.26,30.08,29.86,17,8,6,15,2,,0.00,1,,168
2013-2-6,58,45,32,41,34,27,100,74,27,29.88,29.77,29.68,16,6,6,10,3,,0.04,2,Rain-Thunderstorm,346
2013-2-7,50,41,32,34,21,10,100,49,15,30.04,29.92,29.77,16,6,6,24,6,46,0.02,1,,355
2013-2-8,45,38,30,32,25,19,75,62,45,30.04,29.95,29.89,19,7,6,13,3,22,0.00,3,,13
2013-2-9,52,40,28,32,24,16,75,56,21,30.09,30.06,30.01,19,7,6,13,6,,0.00,1,,24
2013-2-10,57,44,30,37,32,27,87,65,30,30.06,29.87,29.56,19,7,6,18,3,32,0.00,2,,235
2013-2-11,56,48,41,37,34,32,76,63,47,29.62,29.55,29.50,7,6,6,8,3,,0.00,2,Rain,278
2013-2-12,58,48,37,35,30,23,81,56,23,29.92,29.72,29.56,19,7,6,13,5,,0.00,2,,289
2013-2-13,58,45,32,39,32,28,87,69,35,30.09,29.99,29.92,19,7,6,8,3,,0.00,2,,223
2013-2-14,61,48,35,44,37,30,100,75,36,30.15,30.12,30.09,16,6,6,9,2,,0.00,3,,203
2013-2-15,61,48,35,45,39,34,100,76,36,30.15,30.10,30.06,12,5,0,8,2,,0.00,4,Fog,88
2013-2-16,53,48,42,45,39,36,87,73,54,30.17,30.12,30.09,12,7,6,9,1,,0.00,6,,173
2013-2-17,54,50,46,45,41,37,87,74,54,30.09,29.99,29.92,16,7,6,7,2,,0.00,6,,56
2013-2-18,54,50,46,48,47,45,100,92,73,30.01,29.94,29.86,8,6,4,10,4,,0.00,6,,29
2013-2-19,58,46,35,48,41,36,100,84,54,30.04,29.99,29.92,12,6,4,14,3,,0.00,5,Fog,177
2013-2-20,63,46,30,45,37,30,100,86,34,29.95,29.89,29.83,9,3,0,8,1,,0.00,3,Fog,190
2013-2-21,58,46,33,45,40,34,100,85,53,29.87,29.76,29.65,9,4,1,7,1,,0.00,4,Fog-Rain,148
2013-2-22,40,38,35,45,39,36,100,99,88,29.65,29.60,29.56,6,4,2,13,5,,0.31,7,Rain,21
2013-2-23,47,36,26,37,26,16,100,68,39,29.83,29.61,29.47,12,6,4,15,7,24,0.01,4,Rain-Snow,50
2013-2-24,46,34,21,32,22,18,93,67,32,29.98,29.87,29.80,9,6,6,9,2,,0.00,3,,36
2013-2-25,50,39,28,32,26,16,100,73,25,30.09,30.01,29.95,16,7,6,10,2,20,0.00,4,Rain,196
2013-2-26,54,39,24,32,28,19,100,79,32,30.15,30.11,30.09,12,6,6,8,3,,0.00,1,,296
2013-2-27,53,42,30,36,31,23,93,67,44,30.18,30.15,30.12,16,7,6,17,6,,0.00,4,,20
2013-2-28,50,44,39,45,41,37,100,92,76,30.15,30.07,30.01,16,5,1,16,7,29,0.39,5,Rain-Thunderstorm,22